Admiral — WCY6529 — position and weather

sailwx.info

Track history (hours):
 
Tides and Currents Weather Stations Pressure Air Temp Water Temp Dewpoint Dewpoint Depression Visibility Wind Speed Wind Dir Waves Ship Positions

Admiral

Owner: Crowley Marine Services, SEATTLE, WA. More information available from US FCC via Universal Licensing System and Coast Guard Vessel Documentation Center.

Last reported at 2016-May-28 19:28 UTC. Time now 2016-May-28 19:48 UTC.
Position N 33°44' W 118°17'.

; draft 5.3 m.

Type: Tug. MMSI: 366755020.

Date/timePositionNaut miles runAvg speedWind from/ knotsBaromVisibWave heightAir tempDewpointWater temp
2016-May-28 19:28N 33°44' W 118°17'0 0.0
2016-May-28 18:33N 33°44' W 118°17'0 0.0
2016-May-28 17:33N 33°44' W 118°17'0 0.0
2016-May-28 16:33N 33°44' W 118°17'0 0.0
2016-May-28 15:33N 33°44' W 118°17'0 0.0
2016-May-28 14:31N 33°44' W 118°17'0 0.0
2016-May-28 13:33N 33°44' W 118°17'0 0.0
2016-May-28 12:33N 33°44' W 118°17'0 0.0
2016-May-28 07:25N 33°44' W 118°17'3 0.6
2016-May-28 01:25N 33°45' W 118°13'0 0.1
2016-May-28 00:32N 33°45' W 118°13'0 0.3
2016-May-27 23:33N 33°45' W 118°13'1 0.2
2016-May-27 21:20N 33°45' W 118°13'1 0.6
2016-May-27 20:27N 33°45' W 118°13'1 1.3
2016-May-27 19:28N 33°46' W 118°13'1 0.3
2016-May-27 15:32N 33°45' W 118°13'1 0.2
2016-May-27 11:27N 33°46' W 118°14'1 0.6
2016-May-27 10:32N 33°46' W 118°13'1 0.2
2016-May-27 03:04N 33°44' W 118°13'1 2.5
2016-May-27 02:31N 33°46' W 118°13'3 0.2
2016-May-26 13:13N 33°43' W 118°11'2 0.4
2016-May-26 07:28N 33°45' W 118°12'0 0.0
2016-May-26 06:25N 33°45' W 118°12'1 0.6
2016-May-26 05:30N 33°45' W 118°13'0 0.3
2016-May-26 04:21N 33°45' W 118°13'1 0.2
2016-May-25 22:29N 33°44' W 118°13'1 0.6
2016-May-25 20:26N 33°43' W 118°13'3 3.4
2016-May-25 19:34N 33°44' W 118°17'3 0.4
2016-May-25 13:33N 33°43' W 118°14'3 3.1
2016-May-25 12:33N 33°46' W 118°13'2 1.9
2016-May-25 11:34N 33°44' W 118°12'4 1.6
2016-May-25 09:20N 33°44' W 118°17'0 0.0
2016-May-25 08:33N 33°44' W 118°17'0 0.0
2016-May-25 07:26N 33°44' W 118°17'0 0.0
2016-May-25 06:32N 33°44' W 118°17'0 0.0
2016-May-25 04:21N 33°44' W 118°17'0 0.0
2016-May-25 03:29N 33°44' W 118°17'3 2.8
2016-May-25 02:33N 33°43' W 118°14'2 2.4
2016-May-25 01:33N 33°45' W 118°13'0 0.1
2016-May-25 00:33N 33°45' W 118°13'4 3.9
2016-May-24 23:33N 33°42' W 118°10'4 4.2
2016-May-24 22:31N 33°43' W 118°15'2 0.5
2016-May-24 18:17N 33°44' W 118°17'0 0.0
2016-May-24 13:23N 33°44' W 118°17'3 3.6
2016-May-24 12:34N 33°45' W 118°13'0 0.5
2016-May-24 11:34N 33°45' W 118°13'3 3.3
2016-May-24 10:34N 33°43' W 118°16'0 0.3
2016-May-24 09:31N 33°43' W 118°16'1 1.1
2016-May-24 08:25N 33°44' W 118°17'0 0.0
2016-May-24 07:33N 33°44' W 118°17'0 0.0
2016-May-24 06:33N 33°44' W 118°17'0 0.0
2016-May-24 05:34N 33°44' W 118°17'0 0.0
2016-May-24 04:33N 33°44' W 118°17'0 0.0
2016-May-24 03:22N 33°44' W 118°17'0 0.0
2016-May-22 23:28N 33°44' W 118°17'0 0.0
2016-May-22 22:33N 33°44' W 118°17'0 0.0
2016-May-22 21:33N 33°44' W 118°17'0 0.0
2016-May-22 20:33N 33°44' W 118°17'  
Track history (hours):
 
Tides and Currents Weather Stations Pressure Air Temp Water Temp Dewpoint Dewpoint Depression Visibility Wind Speed Wind Dir Waves Ship Positions

Admiral

Owner: Crowley Marine Services, SEATTLE, WA. More information available from US FCC via Universal Licensing System and Coast Guard Vessel Documentation Center.

Last reported at 2016-May-28 19:28 UTC. Time now 2016-May-28 19:48 UTC.
Position N 33°44' W 118°17'.

; draft 5.3 m.

Type: Tug. MMSI: 366755020.

Date/timePositionNaut miles runAvg speedWind from/ knotsBaromVisibWave heightAir tempDewpointWater temp
2016-May-28 19:28N 33°44' W 118°17'0 0.0
2016-May-28 18:33N 33°44' W 118°17'0 0.0
2016-May-28 17:33N 33°44' W 118°17'0 0.0
2016-May-28 16:33N 33°44' W 118°17'0 0.0
2016-May-28 15:33N 33°44' W 118°17'0 0.0
2016-May-28 14:31N 33°44' W 118°17'0 0.0
2016-May-28 13:33N 33°44' W 118°17'0 0.0
2016-May-28 12:33N 33°44' W 118°17'0 0.0
2016-May-28 07:25N 33°44' W 118°17'3 0.6
2016-May-28 01:25N 33°45' W 118°13'0 0.1
2016-May-28 00:32N 33°45' W 118°13'0 0.3
2016-May-27 23:33N 33°45' W 118°13'1 0.2
2016-May-27 21:20N 33°45' W 118°13'1 0.6
2016-May-27 20:27N 33°45' W 118°13'1 1.3
2016-May-27 19:28N 33°46' W 118°13'1 0.3
2016-May-27 15:32N 33°45' W 118°13'1 0.2
2016-May-27 11:27N 33°46' W 118°14'1 0.6
2016-May-27 10:32N 33°46' W 118°13'1 0.2
2016-May-27 03:04N 33°44' W 118°13'1 2.5
2016-May-27 02:31N 33°46' W 118°13'3 0.2
2016-May-26 13:13N 33°43' W 118°11'2 0.4
2016-May-26 07:28N 33°45' W 118°12'0 0.0
2016-May-26 06:25N 33°45' W 118°12'1 0.6
2016-May-26 05:30N 33°45' W 118°13'0 0.3
2016-May-26 04:21N 33°45' W 118°13'1 0.2
2016-May-25 22:29N 33°44' W 118°13'1 0.6
2016-May-25 20:26N 33°43' W 118°13'3 3.4
2016-May-25 19:34N 33°44' W 118°17'3 0.4
2016-May-25 13:33N 33°43' W 118°14'3 3.1
2016-May-25 12:33N 33°46' W 118°13'2 1.9
2016-May-25 11:34N 33°44' W 118°12'4 1.6
2016-May-25 09:20N 33°44' W 118°17'0 0.0
2016-May-25 08:33N 33°44' W 118°17'0 0.0
2016-May-25 07:26N 33°44' W 118°17'0 0.0
2016-May-25 06:32N 33°44' W 118°17'0 0.0
2016-May-25 04:21N 33°44' W 118°17'0 0.0
2016-May-25 03:29N 33°44' W 118°17'3 2.8
2016-May-25 02:33N 33°43' W 118°14'2 2.4
2016-May-25 01:33N 33°45' W 118°13'0 0.1
2016-May-25 00:33N 33°45' W 118°13'4 3.9
2016-May-24 23:33N 33°42' W 118°10'4 4.2
2016-May-24 22:31N 33°43' W 118°15'2 0.5
2016-May-24 18:17N 33°44' W 118°17'0 0.0
2016-May-24 13:23N 33°44' W 118°17'3 3.6
2016-May-24 12:34N 33°45' W 118°13'0 0.5
2016-May-24 11:34N 33°45' W 118°13'3 3.3
2016-May-24 10:34N 33°43' W 118°16'0 0.3
2016-May-24 09:31N 33°43' W 118°16'1 1.1
2016-May-24 08:25N 33°44' W 118°17'0 0.0
2016-May-24 07:33N 33°44' W 118°17'0 0.0
2016-May-24 06:33N 33°44' W 118°17'0 0.0
2016-May-24 05:34N 33°44' W 118°17'0 0.0
2016-May-24 04:33N 33°44' W 118°17'0 0.0
2016-May-24 03:22N 33°44' W 118°17'0 0.0
2016-May-22 23:28N 33°44' W 118°17'0 0.0
2016-May-22 22:33N 33°44' W 118°17'0 0.0
2016-May-22 21:33N 33°44' W 118°17'0 0.0
2016-May-22 20:33N 33°44' W 118°17'  

Dump ship's entire track history